Fond-Du-Lac, Canada
Current Conditions -  °F | °C
As of 8:00 AM on Wednesday 22 Oct 2014 (Local Time) from CYSF Reporting Station
Moderate Fog Moderate Fog  
Wind Chill: 30°   Ceiling: 200
Heat Index: 30°   Visibility: 0mi
Dew Point: 30°   Wind: 2mph
Humidity: 100%   Direction: NA
Pressure: 29.71"   Gusts: NA
Location:  59.32°N, 107.18°W
Report Text: CYSF 221400Z AUTO VRB02KT 0SM FG VV002 M01/M01 A2971 RMK SLP075
Loading
Personal Weather Stations






























Interactive Weather Map
Tropical Storm Tracking
New forecast layout! Learn more

10-Day Weather Forecast

Advertisements
Track Severe Weather on mobile